Time;durP1;ratioP1;P1;durP2;ratioP2;P2;SDS_P1;SDS_P2;PMS_P1;PMS_P2;Temp;Humidity;BMP_temperature;BMP_pressure;BME280_temperature;BME280_humidity;BME280_pressure;Samples;Min_cycle;Max_cycle;Signal;HPM_P1;HPM_P2
2022/08/30 00:02:12;;;;;;;15.60;10.63;;;;;;;19.65;94.20;94821.47;1611457;88;20972;-54
2022/08/30 00:04:40;;;;;;;14.90;10.98;;;;;;;19.62;94.24;94813.48;1616716;87;21075;-54
2022/08/30 00:07:08;;;;;;;15.72;10.78;;;;;;;19.62;94.37;94814.11;1611128;88;21052;-54
2022/08/30 00:09:36;;;;;;;13.00;9.88;;;;;;;19.65;94.37;94813.09;1610098;88;21039;-56
2022/08/30 00:12:05;;;;;;;16.15;10.70;;;;;;;19.68;94.38;94824.02;1604451;88;21274;-54
2022/08/30 00:14:33;;;;;;;17.77;11.63;;;;;;;19.68;94.13;94817.05;1609987;88;20980;-55
2022/08/30 00:17:01;;;;;;;15.58;10.95;;;;;;;19.66;94.35;94817.41;1612267;88;21242;-55
2022/08/30 00:19:29;;;;;;;17.25;10.53;;;;;;;19.63;94.41;94813.62;1611190;88;21143;-55
2022/08/30 00:21:57;;;;;;;13.05;10.15;;;;;;;19.59;94.64;94819.30;1611057;88;21576;-54
2022/08/30 00:24:25;;;;;;;15.85;10.20;;;;;;;19.59;94.98;94812.33;1611156;88;21186;-55
2022/08/30 00:26:52;;;;;;;13.00;9.93;;;;;;;19.60;95.01;94814.59;1609904;88;20995;-54
2022/08/30 00:29:20;;;;;;;13.28;10.85;;;;;;;19.62;95.15;94814.88;1610023;88;21127;-54
2022/08/30 00:31:48;;;;;;;13.53;10.70;;;;;;;19.63;95.21;94813.62;1610033;88;21024;-54
2022/08/30 00:34:16;;;;;;;13.58;10.15;;;;;;;19.62;95.20;94819.07;1611053;88;20985;-54
2022/08/30 00:36:44;;;;;;;15.95;9.53;;;;;;;19.64;95.32;94816.53;1609061;88;21233;-55
2022/08/30 00:39:13;;;;;;;15.43;10.55;;;;;;;19.67;95.22;94814.12;1620611;88;21052;-55
2022/08/30 00:41:40;;;;;;;15.65;10.75;;;;;;;19.69;95.12;94815.00;1611199;88;21672;-55
2022/08/30 00:44:08;;;;;;;19.87;12.23;;;;;;;19.72;95.28;94812.63;1614994;87;21039;-55
2022/08/30 00:46:36;;;;;;;21.23;12.68;;;;;;;19.75;94.88;94822.12;1609948;88;20988;-55
2022/08/30 00:49:09;;;;;;;18.17;11.60;;;;;;;19.71;94.65;94827.20;1610000;88;21168;-54
2022/08/30 00:51:37;;;;;;;46.95;13.80;;;;;;;19.67;94.56;94812.73;1611167;88;21158;-54
2022/08/30 00:54:04;;;;;;;21.17;11.25;;;;;;;19.66;94.70;94821.59;1609973;88;21194;-54
2022/08/30 00:56:32;;;;;;;22.37;12.23;;;;;;;19.66;94.95;94824.39;1610579;88;22230;-56
2022/08/30 00:59:01;;;;;;;20.92;12.58;;;;;;;19.64;95.21;94817.93;1611263;88;21558;-55
2022/08/30 01:01:28;;;;;;;14.10;11.55;;;;;;;19.68;95.62;94816.27;1611081;88;21251;-54
2022/08/30 01:03:56;;;;;;;15.18;10.70;;;;;;;19.70;95.20;94806.78;1611179;88;20993;-53
2022/08/30 01:06:27;;;;;;;17.25;10.08;;;;;;;19.70;95.12;94806.13;1624526;87;21043;-55
2022/08/30 01:08:54;;;;;;;15.70;10.15;;;;;;;19.68;95.05;94807.27;1624201;88;21016;-55
2022/08/30 01:11:23;;;;;;;17.75;10.72;;;;;;;19.68;95.31;94805.88;1574398;88;21095;-54
2022/08/30 01:13:51;;;;;;;13.88;11.25;;;;;;;19.69;95.34;94804.61;1611091;88;21445;-56
2022/08/30 01:16:18;;;;;;;18.17;11.75;;;;;;;19.69;95.44;94801.04;1621496;88;21162;-53
2022/08/30 01:18:47;;;;;;;15.08;11.12;;;;;;;19.68;95.35;94798.90;1611037;88;21043;-55
2022/08/30 01:21:19;;;;;;;14.28;10.30;;;;;;;19.66;95.31;94804.23;1612295;88;21060;-54
2022/08/30 01:23:49;;;;;;;15.70;10.53;;;;;;;19.67;95.51;94797.38;1607686;87;20981;-55
2022/08/30 01:26:16;;;;;;;12.53;11.18;;;;;;;19.70;95.45;94805.39;1625774;87;21206;-54
2022/08/30 01:28:50;;;;;;;17.40;10.90;;;;;;;19.67;95.48;94804.36;1635289;87;21523;-55
2022/08/30 01:31:18;;;;;;;16.20;11.73;;;;;;;19.66;95.42;94801.44;1611168;88;21114;-54
2022/08/30 01:33:46;;;;;;;20.23;11.05;;;;;;;19.62;95.66;94800.15;1605431;88;21187;-56
2022/08/30 01:36:16;;;;;;;13.30;9.98;;;;;;;19.63;95.70;94798.88;1612540;88;21052;-55
2022/08/30 01:38:50;;;;;;;14.87;10.90;;;;;;;19.64;95.82;94798.39;1612220;88;21270;-56
2022/08/30 01:41:30;;;;;;;18.48;11.28;;;;;;;19.67;95.91;94801.56;1612243;88;21440;-55
2022/08/30 01:44:01;;;;;;;13.72;11.18;;;;;;;19.70;95.87;94796.36;1609955;88;21543;-55
2022/08/30 01:46:37;;;;;;;13.83;11.00;;;;;;;19.74;95.64;94796.13;1610550;87;20995;-55
2022/08/30 01:49:02;;;;;;;13.58;10.38;;;;;;;19.76;95.16;94794.33;1610590;86;21190;-54
2022/08/30 01:51:30;;;;;;;14.53;9.75;;;;;;;19.73;95.07;94793.95;1623445;88;22042;-53
2022/08/30 01:53:58;;;;;;;18.57;10.82;;;;;;;19.74;95.03;94798.27;1606972;88;21080;-54
2022/08/30 01:56:26;;;;;;;14.13;10.95;;;;;;;19.70;94.96;94787.24;1609737;88;21027;-54
2022/08/30 01:58:56;;;;;;;13.43;11.03;;;;;;;19.65;95.22;94780.99;1603002;88;21082;-54
2022/08/30 02:01:25;;;;;;;18.48;12.25;;;;;;;19.64;95.38;94780.25;1609894;88;21477;-55
2022/08/30 02:03:55;;;;;;;14.18;10.55;;;;;;;19.61;95.46;94781.26;1608757;87;22019;-56
2022/08/30 02:06:23;;;;;;;13.28;10.45;;;;;;;19.58;95.41;94782.24;1608685;88;21125;-55
2022/08/30 02:08:52;;;;;;;15.35;10.72;;;;;;;19.56;95.70;94781.24;1612073;88;21083;-55
2022/08/30 02:11:19;;;;;;;15.85;12.90;;;;;;;19.56;95.99;94779.84;1609895;88;21153;-54
2022/08/30 02:13:48;;;;;;;17.25;12.63;;;;;;;19.52;96.30;94784.27;1602580;88;21113;-55
2022/08/30 02:16:21;;;;;;;21.00;12.45;;;;;;;19.52;96.44;94785.66;1631859;87;21917;-55
2022/08/30 02:18:49;;;;;;;16.02;11.10;;;;;;;19.54;96.58;94787.96;1611324;88;20988;-55
2022/08/30 02:21:17;;;;;;;13.95;10.58;;;;;;;19.52;96.37;94775.89;1602425;88;21453;-55
2022/08/30 02:23:45;;;;;;;16.00;10.70;;;;;;;19.49;96.60;94788.07;1612178;88;21067;-55
2022/08/30 02:26:13;;;;;;;14.35;11.00;;;;;;;19.49;96.83;94786.67;1608900;88;21036;-56
2022/08/30 02:28:42;;;;;;;17.40;12.47;;;;;;;19.45;97.01;94785.39;1611219;88;21206;-54
2022/08/30 02:31:10;;;;;;;22.25;11.25;;;;;;;19.42;97.38;94787.17;1611649;88;21031;-54
2022/08/30 02:33:38;;;;;;;14.73;10.78;;;;;;;19.40;97.45;94788.94;1612346;88;20991;-55
2022/08/30 02:36:06;;;;;;;15.85;11.60;;;;;;;19.40;97.66;94785.50;1610785;88;21043;-55
2022/08/30 02:38:34;;;;;;;17.87;11.70;;;;;;;19.41;97.93;94792.59;1628785;87;21610;-56
2022/08/30 02:41:02;;;;;;;17.73;12.47;;;;;;;19.43;97.95;94794.28;1626256;87;22244;-55
2022/08/30 02:43:30;;;;;;;18.57;12.28;;;;;;;19.40;98.04;94791.08;1632257;87;21119;-54
2022/08/30 02:45:57;;;;;;;19.80;11.40;;;;;;;19.38;98.34;94789.42;1612067;88;21056;-55
2022/08/30 02:48:24;;;;;;;13.65;10.63;;;;;;;19.39;98.23;94790.95;1639234;85;21043;-54
2022/08/30 02:50:53;;;;;;;17.07;10.50;;;;;;;19.39;98.36;94788.16;1623906;88;21000;-55
2022/08/30 02:53:21;;;;;;;17.12;12.13;;;;;;;19.40;98.35;94789.68;1610903;88;21273;-55
2022/08/30 02:55:48;;;;;;;15.28;11.93;;;;;;;19.38;98.58;94792.22;1636560;87;20979;-54
2022/08/30 02:58:17;;;;;;;14.25;12.07;;;;;;;19.38;98.61;94785.23;1636440;87;20995;-56
2022/08/30 03:00:45;;;;;;;15.50;11.70;;;;;;;19.38;98.81;94791.47;1634577;87;21055;-55
2022/08/30 03:03:13;;;;;;;12.05;10.32;;;;;;;19.37;98.76;94787.91;1637059;87;21247;-55
2022/08/30 03:05:41;;;;;;;16.32;11.83;;;;;;;19.41;98.77;94791.85;1645065;85;21268;-55
2022/08/30 03:08:09;;;;;;;17.10;12.88;;;;;;;19.41;98.74;94789.81;1630820;87;20976;-55
2022/08/30 03:10:38;;;;;;;18.42;11.95;;;;;;;19.38;98.54;94793.61;1630947;87;20996;-54
2022/08/30 03:13:07;;;;;;;22.93;11.88;;;;;;;19.36;98.74;94789.17;1611127;88;21134;-55
2022/08/30 03:15:38;;;;;;;16.60;12.33;;;;;;;19.36;98.75;94790.56;1612267;88;21080;-55
2022/08/30 03:18:05;;;;;;;16.20;12.88;;;;;;;19.37;98.76;94788.55;1607132;88;21160;-55
2022/08/30 03:20:37;;;;;;;17.37;12.63;;;;;;;19.36;98.81;94791.95;1617731;88;21091;-55
2022/08/30 03:23:05;;;;;;;15.90;12.43;;;;;;;19.35;98.83;94792.48;1611151;88;21043;-54
2022/08/30 03:25:33;;;;;;;17.52;11.95;;;;;;;19.32;98.76;94794.85;1602345;88;21043;-55
2022/08/30 03:28:00;;;;;;;16.52;11.68;;;;;;;19.29;98.92;94791.06;1610875;88;21008;-54
2022/08/30 03:30:28;;;;;;;18.07;12.95;;;;;;;19.29;99.22;94792.45;1632470;87;21222;-56
2022/08/30 03:32:55;;;;;;;16.32;13.20;;;;;;;19.31;99.20;94784.95;1612732;87;20996;-55
2022/08/30 03:35:24;;;;;;;20.57;12.28;;;;;;;19.33;99.23;94792.97;1632312;87;21106;-54
2022/08/30 03:37:52;;;;;;;17.35;11.65;;;;;;;19.38;98.98;94800.59;1611281;88;21515;-55
2022/08/30 03:40:20;;;;;;;15.05;11.10;;;;;;;19.40;98.62;94800.84;1608941;88;20996;-54
2022/08/30 03:42:47;;;;;;;20.52;12.23;;;;;;;19.40;98.43;94807.07;1612408;87;21139;-55
2022/08/30 03:45:16;;;;;;;23.05;12.45;;;;;;;19.41;98.33;94810.73;1608944;88;21481;-54
2022/08/30 03:47:44;;;;;;;15.88;11.90;;;;;;;19.38;98.24;94815.93;1612260;88;21019;-54
2022/08/30 03:50:12;;;;;;;13.60;10.75;;;;;;;19.38;98.06;94811.75;1611425;88;21551;-55
2022/08/30 03:52:40;;;;;;;15.83;10.98;;;;;;;19.36;97.82;94810.09;1635008;87;20984;-54
2022/08/30 03:55:08;;;;;;;12.70;10.65;;;;;;;19.36;97.99;94804.52;1612326;87;21885;-54
2022/08/30 03:57:39;;;;;;;16.17;11.35;;;;;;;19.39;97.86;94807.69;1625027;86;21118;-55
2022/08/30 04:00:08;;;;;;;13.10;11.45;;;;;;;19.45;97.69;94811.90;1610980;88;21055;-55
2022/08/30 04:02:40;;;;;;;17.98;11.80;;;;;;;19.47;97.22;94817.12;1637073;87;21447;-55
2022/08/30 04:05:09;;;;;;;13.03;9.93;;;;;;;19.47;96.55;94817.12;1631972;87;20999;-54
2022/08/30 04:07:38;;;;;;;12.70;10.30;;;;;;;19.53;95.62;94810.91;1635305;87;21255;-55
2022/08/30 04:10:07;;;;;;;15.28;11.05;;;;;;;19.58;94.66;94815.73;1611124;88;20984;-55
2022/08/30 04:12:36;;;;;;;15.05;11.80;;;;;;;19.61;94.50;94811.96;1610655;87;21036;-54
2022/08/30 04:15:09;;;;;;;14.87;12.90;;;;;;;19.61;94.22;94817.55;1633879;87;21063;-54
2022/08/30 04:17:37;;;;;;;18.97;11.63;;;;;;;19.59;94.36;94822.84;1610284;88;20997;-54
2022/08/30 04:20:06;;;;;;;18.07;11.60;;;;;;;19.57;94.45;94821.19;1609989;88;21265;-54
2022/08/30 04:22:36;;;;;;;25.45;11.55;;;;;;;19.54;94.58;94818.02;1602440;87;21059;-55
2022/08/30 04:25:05;;;;;;;16.12;11.40;;;;;;;19.57;94.87;94824.63;1607750;88;21068;-54
2022/08/30 04:27:33;;;;;;;19.05;11.68;;;;;;;19.60;94.48;94829.95;1609132;88;21027;-54
2022/08/30 04:30:00;;;;;;;15.65;10.95;;;;;;;19.64;94.34;94826.92;1623433;88;21090;-55
2022/08/30 04:32:28;;;;;;;20.15;13.68;;;;;;;19.70;93.67;94831.26;1635740;87;21286;-55
2022/08/30 04:34:57;;;;;;;23.25;15.60;;;;;;;19.69;92.75;94821.98;1616954;87;21126;-55
2022/08/30 04:37:25;;;;;;;41.65;14.85;;;;;;;19.67;92.86;94828.70;1633030;87;21038;-54
2022/08/30 04:39:59;;;;;;;21.80;15.68;;;;;;;19.64;93.31;94831.89;1611171;88;21043;-54
2022/08/30 04:42:31;;;;;;;22.45;15.08;;;;;;;19.66;93.62;94827.95;1610161;88;21151;-55
2022/08/30 04:45:01;;;;;;;14.50;11.83;;;;;;;19.67;93.71;94830.09;1628018;87;21228;-51
2022/08/30 04:47:29;;;;;;;16.20;12.05;;;;;;;19.67;93.33;94821.10;1612318;88;21606;-53
2022/08/30 04:49:58;;;;;;;13.55;11.35;;;;;;;19.66;92.84;94834.94;1612072;88;21606;-54
2022/08/30 04:52:26;;;;;;;12.23;9.60;;;;;;;19.60;92.79;94832.74;1628442;87;20996;-51
2022/08/30 04:54:55;;;;;;;13.80;9.63;;;;;;;19.59;92.65;94832.61;1619602;87;20995;-51
2022/08/30 04:57:23;;;;;;;20.45;11.57;;;;;;;19.56;91.89;94839.20;1612273;88;21162;-55
2022/08/30 04:59:51;;;;;;;16.40;10.70;;;;;;;19.57;91.88;94836.55;1609377;88;21040;-54
2022/08/30 05:02:19;;;;;;;15.05;9.83;;;;;;;19.57;91.37;94828.17;1620456;87;21000;-54
2022/08/30 05:07:33;;;;;;;17.95;9.88;;;;;;;19.56;90.48;94830.83;1630535;87;21046;-53
2022/08/30 05:10:02;;;;;;;13.38;9.98;;;;;;;19.56;90.39;94832.23;1598181;88;21242;-54
2022/08/30 05:12:31;;;;;;;12.90;9.50;;;;;;;19.55;90.11;94834.89;1607660;87;21131;-56
2022/08/30 05:14:59;;;;;;;10.48;8.68;;;;;;;19.51;90.27;94831.59;1612225;87;23076;-54
2022/08/30 05:17:27;;;;;;;12.35;8.55;;;;;;;19.47;90.44;94832.47;1609946;88;21119;-55
2022/08/30 05:19:55;;;;;;;10.43;8.45;;;;;;;19.47;90.19;94831.69;1611233;88;21142;-55
2022/08/30 05:22:23;;;;;;;12.20;9.08;;;;;;;19.42;90.43;94833.22;1611669;88;21544;-54
2022/08/30 05:24:50;;;;;;;12.85;9.65;;;;;;;19.37;90.44;94838.77;1621496;86;21085;-54
2022/08/30 05:27:19;;;;;;;13.08;9.95;;;;;;;19.35;90.49;94840.66;1658167;83;21074;-54
2022/08/30 05:29:46;;;;;;;13.88;9.13;;;;;;;19.34;90.39;94839.13;1666390;84;21562;-56
2022/08/30 05:32:14;;;;;;;13.32;8.70;;;;;;;19.30;90.51;94840.63;1595807;86;21133;-54
2022/08/30 05:34:41;;;;;;;14.70;8.55;;;;;;;19.33;90.79;94843.19;1640239;85;21762;-54
2022/08/30 05:37:08;;;;;;;14.55;9.78;;;;;;;19.36;90.70;94840.78;1654073;83;21176;-56
2022/08/30 05:39:36;;;;;;;11.90;8.80;;;;;;;19.36;90.49;94840.04;1634955;86;21072;-56
2022/08/30 05:42:04;;;;;;;13.00;9.90;;;;;;;19.34;90.79;94837.73;1660459;83;21541;-57
2022/08/30 05:44:32;;;;;;;13.90;9.90;;;;;;;19.29;91.36;94851.05;1630545;86;21529;-59
2022/08/30 05:47:01;;;;;;;13.38;8.38;;;;;;;19.24;91.81;94852.41;1560892;87;21326;-59
2022/08/30 05:49:29;;;;;;;12.47;8.78;;;;;;;19.16;92.20;94852.11;1613192;89;21034;-58
2022/08/30 05:51:58;;;;;;;13.68;9.60;;;;;;;19.15;92.47;94854.74;1617642;87;21099;-57
2022/08/30 05:54:26;;;;;;;15.80;10.35;;;;;;;19.15;92.99;94861.72;1612966;87;21549;-56
2022/08/30 05:56:53;;;;;;;17.27;11.12;;;;;;;19.15;92.87;94865.16;1619825;87;21069;-56
2022/08/30 05:59:21;;;;;;;13.45;10.30;;;;;;;19.15;92.94;94867.94;1631015;86;22083;-55
2022/08/30 06:01:50;;;;;;;27.73;11.00;;;;;;;19.18;93.16;94868.36;1623821;87;22473;-56
2022/08/30 06:04:17;;;;;;;23.07;11.50;;;;;;;19.19;93.72;94866.45;1585044;87;21004;-56
2022/08/30 06:06:45;;;;;;;19.98;11.38;;;;;;;19.21;93.99;94877.87;1618350;85;21045;-59
2022/08/30 06:09:12;;;;;;;14.80;10.13;;;;;;;19.24;94.36;94868.53;1606813;87;21048;-55
2022/08/30 06:11:42;;;;;;;11.75;9.95;;;;;;;19.29;94.62;94870.57;1618374;86;21118;-55
2022/08/30 06:14:10;;;;;;;12.18;8.73;;;;;;;19.30;94.26;94869.92;1654858;85;21576;-56
2022/08/30 06:16:40;;;;;;;11.75;8.80;;;;;;;19.29;94.15;94874.75;1657184;85;21516;-55
2022/08/30 06:19:09;;;;;;;11.45;9.55;;;;;;;19.29;94.02;94872.58;1620223;85;21125;-55
2022/08/30 06:21:38;;;;;;;15.38;10.80;;;;;;;19.29;93.96;94876.77;1621024;85;21011;-62
2022/08/30 06:24:07;;;;;;;15.18;10.55;;;;;;;19.32;93.65;94876.55;1625235;86;21074;-54
2022/08/30 06:26:40;;;;;;;12.75;9.65;;;;;;;19.36;93.82;94876.31;1633122;85;21145;-55
2022/08/30 06:29:08;;;;;;;14.98;11.03;;;;;;;19.36;93.89;94879.85;1651727;85;20995;-56
2022/08/30 06:31:36;;;;;;;13.75;9.95;;;;;;;19.34;93.48;94879.59;1639934;86;21101;-54
2022/08/30 06:34:04;;;;;;;12.60;9.95;;;;;;;19.35;93.38;94880.37;1641328;85;21026;-56
2022/08/30 06:36:33;;;;;;;16.45;11.85;;;;;;;19.38;93.57;94885.69;1635362;85;21774;-55
2022/08/30 06:39:00;;;;;;;15.48;10.48;;;;;;;19.43;92.73;94878.61;1644735;84;21100;-55
2022/08/30 06:41:31;;;;;;;16.93;10.43;;;;;;;19.46;92.14;94883.97;1647965;83;21044;-55
2022/08/30 06:43:59;;;;;;;16.23;11.08;;;;;;;19.47;92.32;94879.91;1629608;84;21083;-54
2022/08/30 06:46:31;;;;;;;12.35;9.98;;;;;;;19.47;92.53;94884.09;1637518;85;21024;-55
2022/08/30 06:48:58;;;;;;;12.07;10.17;;;;;;;19.47;91.91;94881.31;1650456;85;21067;-55
2022/08/30 06:51:31;;;;;;;12.15;10.13;;;;;;;19.47;91.62;94874.33;1649235;84;21075;-55
2022/08/30 06:53:58;;;;;;;14.87;10.68;;;;;;;19.50;91.60;94878.91;1621981;87;21025;-55
2022/08/30 06:56:25;;;;;;;13.03;10.80;;;;;;;19.53;91.82;94875.75;1654415;85;22118;-57
2022/08/30 06:58:53;;;;;;;12.50;10.20;;;;;;;19.57;91.54;94876.27;1660223;84;21095;-54
2022/08/30 07:01:23;;;;;;;14.87;10.85;;;;;;;19.63;90.83;94879.83;1656651;84;21242;-56
2022/08/30 07:03:50;;;;;;;14.60;12.30;;;;;;;19.71;90.19;94881.64;1656217;85;21081;-56
2022/08/30 07:06:18;;;;;;;16.73;11.60;;;;;;;19.78;89.85;94880.39;1647603;86;21009;-55
2022/08/30 07:08:45;;;;;;;16.62;11.48;;;;;;;19.81;89.73;94881.56;1613700;86;21861;-54
2022/08/30 07:11:13;;;;;;;14.53;10.58;;;;;;;19.83;89.37;94877.63;1629457;85;21082;-58
2022/08/30 07:13:40;;;;;;;13.43;9.63;;;;;;;19.87;89.29;94887.91;1615972;85;21214;-53
2022/08/30 07:16:11;;;;;;;17.67;11.40;;;;;;;19.87;88.59;94885.12;1624892;86;21034;-53
2022/08/30 07:18:49;;;;;;;13.05;9.80;;;;;;;19.85;88.17;94884.86;1629741;86;21060;-58
2022/08/30 07:21:19;;;;;;;13.00;10.13;;;;;;;19.83;88.28;94889.41;1641153;85;21067;-55
2022/08/30 07:23:48;;;;;;;13.25;8.73;;;;;;;19.81;88.12;94884.34;1627457;85;21114;-52
2022/08/30 07:26:18;;;;;;;12.90;8.50;;;;;;;19.83;87.67;94884.61;1608969;86;21179;-55
2022/08/30 07:28:45;;;;;;;11.50;8.60;;;;;;;19.85;87.89;94891.06;1635157;86;21111;-57
2022/08/30 07:31:13;;;;;;;16.23;9.25;;;;;;;19.87;87.85;94889.92;1629397;86;21033;-55
2022/08/30 07:33:40;;;;;;;13.00;10.18;;;;;;;19.89;87.26;94892.35;1628101;86;21079;-54
2022/08/30 07:36:08;;;;;;;12.95;9.40;;;;;;;19.90;86.92;94889.69;1628411;86;21079;-54
2022/08/30 07:38:35;;;;;;;12.47;9.13;;;;;;;19.94;86.82;94895.04;1630436;87;21392;-58
2022/08/30 07:41:03;;;;;;;12.82;8.80;;;;;;;19.96;86.25;94896.05;1628787;86;21060;-56
2022/08/30 07:43:32;;;;;;;14.43;8.70;;;;;;;19.99;86.01;94897.85;1629859;85;21552;-57
2022/08/30 07:46:06;;;;;;;25.52;9.78;;;;;;;20.04;85.72;94897.13;1627839;86;21041;-56
2022/08/30 07:48:34;;;;;;;11.53;8.95;;;;;;;20.06;85.82;94894.59;1633298;86;21673;-54
2022/08/30 07:51:03;;;;;;;14.18;9.13;;;;;;;20.04;85.41;94897.74;1631896;85;21144;-54
2022/08/30 07:53:31;;;;;;;11.88;9.60;;;;;;;20.00;85.47;94900.78;1655008;85;21608;-55
2022/08/30 07:55:58;;;;;;;14.68;7.78;;;;;;;20.00;85.11;94897.98;1651445;85;21118;-53
2022/08/30 07:58:25;;;;;;;11.83;9.00;;;;;;;20.05;85.04;94897.25;1654985;83;21194;-57
2022/08/30 08:00:53;;;;;;;12.73;8.48;;;;;;;20.09;84.62;94907.54;1635504;85;21096;-55
2022/08/30 08:03:20;;;;;;;11.78;9.03;;;;;;;20.09;84.46;94903.34;1650248;85;21257;-55
2022/08/30 08:05:48;;;;;;;12.65;8.90;;;;;;;20.05;84.29;94910.44;1645839;86;21086;-56
2022/08/30 08:08:16;;;;;;;13.50;7.92;;;;;;;19.94;84.03;94909.75;1653732;84;21174;-58
2022/08/30 08:10:43;;;;;;;14.20;7.92;;;;;;;19.87;84.50;94913.05;1636663;86;21021;-55
2022/08/30 08:13:11;;;;;;;14.78;9.20;;;;;;;19.86;85.00;94915.70;1637789;86;21544;-56
2022/08/30 08:15:38;;;;;;;16.48;9.78;;;;;;;19.85;85.13;94915.58;1657333;84;21238;-57
2022/08/30 08:18:06;;;;;;;15.08;8.90;;;;;;;19.83;84.88;94917.34;1659208;84;20997;-58
2022/08/30 08:20:35;;;;;;;11.10;8.83;;;;;;;19.80;84.86;94917.73;1668166;84;21205;-58
2022/08/30 08:23:02;;;;;;;13.85;8.35;;;;;;;19.83;84.86;94911.13;1663455;83;21051;-57
2022/08/30 08:25:30;;;;;;;10.98;7.95;;;;;;;19.85;84.61;94907.82;1669605;84;22121;-57
2022/08/30 08:27:57;;;;;;;13.68;9.18;;;;;;;19.83;84.90;94912.53;1678432;82;21345;-55
2022/08/30 08:30:24;;;;;;;14.75;10.05;;;;;;;19.82;85.21;94917.98;1684717;84;21029;-59
2022/08/30 08:32:51;;;;;;;15.23;10.70;;;;;;;19.83;85.54;94910.36;1646513;84;21564;-55
2022/08/30 08:35:19;;;;;;;15.40;9.63;;;;;;;19.85;85.62;94905.03;1671301;82;21052;-56
2022/08/30 08:37:46;;;;;;;12.58;10.03;;;;;;;19.85;85.46;94899.44;1671136;84;22038;-56
2022/08/30 08:40:17;;;;;;;13.58;10.20;;;;;;;19.86;85.37;94887.78;1667207;84;21155;-56
2022/08/30 08:43:04;;;;;;;16.15;10.90;;;;;;;19.89;85.51;94886.02;1665749;84;21103;-55
2022/08/30 08:45:43;;;;;;;15.50;10.30;;;;;;;19.90;85.71;94888.94;1675258;82;21068;-56
2022/08/30 08:48:35;;;;;;;14.87;11.10;;;;;;;19.98;85.61;94887.17;1667823;82;21028;-57
2022/08/30 08:53:53;;;;;;;17.02;9.28;;;;;;;20.18;84.12;94891.30;1638137;85;21620;-56
2022/08/30 08:56:21;;;;;;;15.48;10.10;;;;;;;20.28;83.02;94893.22;1660821;85;21037;-60
2022/08/30 08:58:56;;;;;;;18.25;10.43;;;;;;;20.26;81.89;94891.57;1631746;86;21019;-57
2022/08/30 09:01:26;;;;;;;19.15;10.55;;;;;;;20.24;81.59;94894.11;1654710;85;21085;-56
2022/08/30 09:03:55;;;;;;;23.25;10.10;;;;;;;20.26;81.41;94890.17;1653897;85;21076;-60
2022/08/30 09:06:48;;;;;;;14.75;8.65;;;;;;;20.28;81.10;94896.02;1619788;86;21144;-60
2022/08/30 09:09:23;;;;;;;14.70;8.98;;;;;;;20.28;80.39;94894.00;1653376;84;21069;-55
2022/08/30 09:11:51;;;;;;;14.35;8.60;;;;;;;20.26;79.68;94897.16;1680766;83;20994;-59
2022/08/30 09:14:24;;;;;;;18.10;9.68;;;;;;;20.20;78.71;94885.22;1663548;85;21022;-55
2022/08/30 09:17:02;;;;;;;12.15;9.05;;;;;;;20.17;78.53;94892.57;1642000;85;21074;-54
2022/08/30 09:19:38;;;;;;;13.10;8.20;;;;;;;20.20;78.35;94885.22;1684004;84;21062;-54
2022/08/30 09:22:17;;;;;;;13.20;8.18;;;;;;;20.20;78.02;94889.41;1634447;85;20997;-57
2022/08/30 09:24:50;;;;;;;25.72;8.45;;;;;;;20.18;78.04;94886.36;1668036;83;21495;-53
2022/08/30 09:27:22;;;;;;;13.95;7.87;;;;;;;20.19;78.47;94890.69;1666234;83;21106;-56
2022/08/30 09:29:52;;;;;;;21.52;8.98;;;;;;;20.22;78.37;94883.42;1618176;87;21221;-61
2022/08/30 09:32:24;;;;;;;19.05;11.30;;;;;;;20.24;78.07;94880.14;1634378;86;21137;-57
2022/08/30 09:34:52;;;;;;;14.33;8.63;;;;;;;20.22;78.27;94884.08;1613391;87;21096;-55
2022/08/30 09:37:33;;;;;;;14.90;7.75;;;;;;;20.19;78.11;94879.50;1603427;88;21141;-59
2022/08/30 09:40:01;;;;;;;14.15;7.87;;;;;;;20.18;78.05;94880.78;1591744;88;21104;-57
2022/08/30 09:42:29;;;;;;;17.95;9.25;;;;;;;20.16;78.04;94873.54;1612994;87;21084;-57
2022/08/30 09:45:09;;;;;;;19.73;9.20;;;;;;;20.18;78.02;94873.14;1593820;85;21567;-56
2022/08/30 09:47:30;;;;;;;13.03;7.92;;;;;;;20.20;78.07;94872.65;1644478;86;21061;-57
2022/08/30 09:50:13;;;;;;;13.25;7.67;;;;;;;20.18;77.43;94867.55;1637649;87;21087;-57
2022/08/30 09:53:08;;;;;;;14.20;8.23;;;;;;;20.20;77.59;94870.60;1593677;87;21475;-60
2022/08/30 09:55:55;;;;;;;11.33;7.65;;;;;;;20.22;77.11;94868.71;1613765;87;21607;-60
2022/08/30 09:58:44;;;;;;;19.80;8.25;;;;;;;20.27;76.66;94879.13;1667632;84;21239;-59
2022/08/30 10:01:25;;;;;;;11.38;7.37;;;;;;;20.30;76.49;94875.31;1670062;84;21125;-59
2022/08/30 10:04:06;;;;;;;15.43;8.68;;;;;;;20.34;76.69;94870.26;1673328;84;21137;-61
2022/08/30 10:06:42;;;;;;;19.87;8.08;;;;;;;20.37;76.10;94880.41;1644830;85;21552;-61
2022/08/30 10:09:39;;;;;;;15.18;7.80;;;;;;;20.37;75.71;94880.41;1639981;84;21815;-58
2022/08/30 10:12:15;;;;;;;19.82;8.58;;;;;;;20.41;75.84;94873.94;1580947;89;21587;-58
2022/08/30 10:15:09;;;;;;;27.02;9.18;;;;;;;20.48;75.55;94878.38;1607797;87;21826;-60
2022/08/30 10:18:03;;;;;;;19.50;8.78;;;;;;;20.51;74.57;94882.17;1637252;85;21588;-58
2022/08/30 10:20:44;;;;;;;21.50;9.73;;;;;;;20.52;74.11;94880.94;1639192;86;21041;-56
2022/08/30 10:23:23;;;;;;;20.80;8.75;;;;;;;20.51;73.82;94881.56;1628033;87;21129;-57
2022/08/30 10:25:58;;;;;;;14.18;7.83;;;;;;;20.50;74.06;94888.42;1627554;86;21147;-57
2022/08/30 10:28:39;;;;;;;19.37;8.80;;;;;;;20.50;74.47;94889.81;1613852;87;21327;-56
2022/08/30 10:31:12;;;;;;;15.95;8.30;;;;;;;20.49;74.50;94895.91;1629251;84;21175;-57
2022/08/30 10:33:42;;;;;;;;;;;;;;;20.49;75.21;94901.49;1641336;86;21005;-55
2022/08/30 10:36:11;;;;;;;17.87;10.72;;;;;;;20.45;75.21;94896.17;1640047;85;20143;-57
2022/08/30 10:38:48;;;;;;;20.23;11.43;;;;;;;20.44;75.15;94902.26;1651280;84;21079;-58
2022/08/30 10:41:38;;;;;;;15.65;9.95;;;;;;;20.42;75.03;94899.21;1652310;84;21064;-58
2022/08/30 10:44:24;;;;;;;19.52;10.38;;;;;;;20.41;74.98;94901.87;1651466;84;21170;-58
2022/08/30 10:47:19;;;;;;;15.25;10.10;;;;;;;20.38;74.97;94892.47;1668424;84;21100;-56
2022/08/30 10:49:49;;;;;;;19.60;11.18;;;;;;;20.40;74.84;94900.36;1665960;84;21160;-61
2022/08/30 10:52:32;;;;;;;20.85;12.23;;;;;;;20.39;74.77;94890.45;1624997;85;21300;-57
2022/08/30 10:55:10;;;;;;;21.77;11.08;;;;;;;20.38;75.09;94897.31;1666589;85;21077;-56
2022/08/30 10:57:38;;;;;;;15.83;10.70;;;;;;;20.39;75.36;94892.59;1652411;85;21080;-58
2022/08/30 11:00:13;;;;;;;22.37;10.72;;;;;;;20.45;75.35;94889.19;1646744;84;21086;-59
2022/08/30 11:03:15;;;;;;;23.35;12.00;;;;;;;20.55;74.20;94884.86;1658392;85;21550;-56
2022/08/30 11:06:21;;;;;;;17.17;10.88;;;;;;;20.64;73.85;94882.44;1663681;86;21264;-57
2022/08/30 11:09:23;;;;;;;21.02;11.50;;;;;;;20.73;73.73;94876.60;1639663;85;21074;-57
2022/08/30 11:12:02;;;;;;;15.72;10.48;;;;;;;20.86;73.07;94873.44;1646493;86;21012;-56
2022/08/30 11:14:31;;;;;;;29.25;12.28;;;;;;;20.98;72.59;94872.78;1615659;86;21451;-57
2022/08/30 11:17:00;;;;;;;23.10;11.43;;;;;;;21.10;72.83;94867.30;1625577;86;21737;-56
2022/08/30 11:19:36;;;;;;;30.20;10.95;;;;;;;21.27;72.16;94865.22;1643148;85;21469;-57
2022/08/30 11:22:18;;;;;;;17.07;10.25;;;;;;;21.49;71.99;94863.73;1668281;83;22164;-55
2022/08/30 11:25:09;;;;;;;18.57;9.28;;;;;;;21.74;70.35;94858.42;1648162;85;21065;-57
2022/08/30 11:27:54;;;;;;;15.68;9.98;;;;;;;21.97;69.87;94864.02;1643280;84;20995;-58
2022/08/30 11:30:30;;;;;;;17.25;10.03;;;;;;;22.15;68.90;94857.92;1656388;83;21025;-57
2022/08/30 11:33:04;;;;;;;21.33;10.38;;;;;;;22.24;67.53;94858.25;1647688;84;21250;-58
2022/08/30 11:35:54;;;;;;;16.97;10.08;;;;;;;22.28;66.69;94851.74;1659954;84;21125;-57
2022/08/30 11:38:32;;;;;;;19.57;8.70;;;;;;;22.32;67.19;94848.01;1641869;85;20983;-60
2022/08/30 11:41:13;;;;;;;16.48;9.00;;;;;;;22.37;67.09;94845.17;1622351;86;21082;-60
2022/08/30 11:43:48;;;;;;;20.30;9.73;;;;;;;22.58;66.57;94847.70;1613948;87;21127;-60